Time;durP1;ratioP1;P1;durP2;ratioP2;P2;SDS_P1;SDS_P2;PMS_P1;PMS_P2;Temp;Humidity;BMP_temperature;BMP_pressure;BME280_temperature;BME280_humidity;BME280_pressure;Samples;Min_cycle;Max_cycle;Signal;HPM_P1;HPM_P2
2022/08/12 00:43:16;;;;;;;1.70;1.60;;;25.10;99.90;;;;;;1043009;28;20033;-65
2022/08/12 00:43:48;;;;;;;3.20;1.50;;;25.10;99.90;;;;;;1043408;28;20017;-65
2022/08/12 00:44:21;;;;;;;3.63;1.45;;;25.10;99.90;;;;;;1043391;28;20020;-66
2022/08/12 00:44:53;;;;;;;2.17;1.70;;;25.10;99.90;;;;;;1043218;28;20680;-65
2022/08/12 00:45:24;;;;;;;2.95;1.98;;;25.10;99.90;;;;;;1043209;28;20017;-65
2022/08/12 00:46:54;;;;;;;4.38;1.50;;;25.10;99.90;;;;;;1043329;28;21047;-66
2022/08/12 00:47:24;;;;;;;2.45;1.90;;;25.10;99.90;;;;;;1043434;28;20041;-65
2022/08/12 00:47:55;;;;;;;1.93;1.50;;;25.10;99.90;;;;;;1042881;28;20373;-66
2022/08/12 00:48:26;;;;;;;1.20;1.10;;;25.10;99.90;;;;;;1043083;28;20024;-66
2022/08/12 00:48:57;;;;;;;2.47;1.90;;;25.10;99.90;;;;;;1042990;28;20009;-65
2022/08/12 00:49:29;;;;;;;2.55;1.63;;;25.00;99.90;;;;;;1043015;28;20259;-65
2022/08/12 00:50:00;;;;;;;2.05;1.75;;;25.00;99.90;;;;;;1043234;28;20036;-67
2022/08/12 00:50:32;;;;;;;1.92;1.30;;;25.00;99.90;;;;;;1043390;28;20017;-67
2022/08/12 00:51:03;;;;;;;2.03;1.70;;;25.00;99.90;;;;;;1043084;28;20027;-67
2022/08/12 00:52:27;;;;;;;3.38;2.17;;;25.00;99.90;;;;;;1043299;28;20078;-67
2022/08/12 00:52:58;;;;;;;1.67;1.40;;;25.00;99.90;;;;;;1043200;28;20052;-67
2022/08/12 00:53:29;;;;;;;2.60;1.90;;;25.00;99.90;;;;;;1043298;28;20098;-66
2022/08/12 00:54:00;;;;;;;3.00;2.00;;;25.00;99.90;;;;;;1043221;28;20029;-67
2022/08/12 00:54:46;;;;;;;2.93;1.70;;;25.00;99.90;;;;;;1043387;28;20025;-68
2022/08/12 00:55:18;;;;;;;2.28;1.83;;;25.00;99.90;;;;;;1043147;28;20625;-66
2022/08/12 00:55:54;;;;;;;2.83;1.92;;;25.00;99.90;;;;;;1043393;28;20017;-67
2022/08/12 00:56:26;;;;;;;2.10;1.90;;;25.00;99.90;;;;;;1043277;28;20389;-67
2022/08/12 00:57:01;;;;;;;2.15;1.80;;;25.00;99.90;;;;;;1043292;28;20017;-67
2022/08/12 00:57:35;;;;;;;3.88;2.20;;;25.00;99.90;;;;;;1042959;28;20017;-66
2022/08/12 00:58:07;;;;;;;2.33;1.58;;;25.00;99.90;;;;;;1043238;28;20044;-66
2022/08/12 00:58:42;;;;;;;2.67;1.73;;;25.00;99.90;;;;;;1043457;28;20086;-66
2022/08/12 00:59:13;;;;;;;1.67;1.52;;;24.90;99.90;;;;;;1043059;28;20100;-67
2022/08/12 00:59:49;;;;;;;2.07;1.60;;;25.00;99.90;;;;;;1043736;28;20025;-66
2022/08/12 01:00:23;;;;;;;2.63;1.90;;;24.90;99.90;;;;;;1042979;28;20044;-66
2022/08/12 01:01:06;;;;;;;2.55;1.80;;;24.90;99.90;;;;;;1043368;28;20021;-65
2022/08/12 01:01:42;;;;;;;2.72;1.83;;;24.90;99.90;;;;;;1043203;28;20075;-67
2022/08/12 01:02:27;;;;;;;2.47;1.95;;;24.90;99.90;;;;;;1043073;28;20075;-68
2022/08/12 01:03:00;;;;;;;2.17;1.60;;;24.90;99.90;;;;;;1043308;28;20071;-66
2022/08/12 01:11:31;;;;;;;2.45;1.90;;;24.90;99.90;;;;;;1043236;28;20095;-65
2022/08/12 01:12:04;;;;;;;3.22;1.77;;;24.80;99.90;;;;;;1043138;28;20107;-67
2022/08/12 01:12:37;;;;;;;2.83;1.90;;;24.80;99.90;;;;;;1043308;28;20275;-66
2022/08/12 01:13:08;;;;;;;2.40;2.00;;;24.80;99.90;;;;;;1042936;28;20607;-67
2022/08/12 01:13:45;;;;;;;3.50;1.80;;;24.80;99.90;;;;;;1043341;28;20021;-67
2022/08/12 01:14:18;;;;;;;3.05;1.95;;;24.80;99.90;;;;;;1043178;28;20099;-66
2022/08/12 01:14:50;;;;;;;1.70;1.60;;;24.80;99.90;;;;;;1043158;28;20040;-67
2022/08/12 01:15:20;;;;;;;2.15;1.77;;;24.80;99.90;;;;;;1043553;28;20021;-66
2022/08/12 01:15:54;;;;;;;2.03;1.70;;;24.80;99.90;;;;;;1043242;28;20037;-67
2022/08/12 01:16:25;;;;;;;2.33;1.70;;;24.80;99.90;;;;;;1043241;28;20024;-65
2022/08/12 01:16:57;;;;;;;2.13;1.92;;;24.80;99.90;;;;;;1042891;28;20075;-67
2022/08/12 01:17:29;;;;;;;3.30;1.80;;;24.80;99.90;;;;;;1043214;28;20364;-66
2022/08/12 01:18:00;;;;;;;3.20;1.90;;;24.80;99.90;;;;;;1043538;28;20025;-66
2022/08/12 01:18:35;;;;;;;2.67;1.80;;;24.80;99.90;;;;;;1043100;28;20031;-66
2022/08/12 01:19:07;;;;;;;3.20;1.80;;;24.80;99.90;;;;;;1043116;28;20393;-65
2022/08/12 01:19:39;;;;;;;2.78;2.03;;;24.80;99.90;;;;;;1043300;28;20025;-65
2022/08/12 01:20:18;;;;;;;6.30;2.15;;;24.70;99.90;;;;;;1043144;28;20086;-67
2022/08/12 01:20:51;;;;;;;2.00;1.80;;;24.80;99.90;;;;;;1043205;28;20025;-65
2022/08/12 01:22:01;;;;;;;1.67;1.58;;;24.80;99.90;;;;;;1042964;28;20044;-65
2022/08/12 01:22:58;;;;;;;2.65;1.98;;;24.80;99.90;;;;;;1042970;28;20033;-65
2022/08/12 01:23:47;;;;;;;;;;;24.80;99.90;;;;;;1043525;28;20065;-65
2022/08/12 01:24:46;;;;;;;3.90;1.95;;;24.80;99.90;;;;;;1042984;28;19909;-65
2022/08/12 01:25:19;;;;;;;2.63;2.20;;;24.70;99.90;;;;;;1043199;28;20029;-65
2022/08/12 01:25:52;;;;;;;2.47;1.77;;;24.70;99.90;;;;;;1042754;28;20121;-65
2022/08/12 01:26:24;;;;;;;3.42;2.30;;;24.70;99.90;;;;;;1042705;28;20021;-65
2022/08/12 01:26:56;;;;;;;2.05;1.85;;;24.70;99.90;;;;;;1042768;28;20100;-65
2022/08/12 01:27:28;;;;;;;1.98;1.50;;;24.70;99.90;;;;;;1042598;28;20107;-65
2022/08/12 01:28:01;;;;;;;2.10;1.90;;;24.70;99.90;;;;;;1043505;28;20032;-66
2022/08/12 01:28:33;;;;;;;2.75;2.35;;;24.70;99.90;;;;;;1043028;28;20059;-65
2022/08/12 01:29:06;;;;;;;3.83;2.10;;;24.70;99.90;;;;;;1043308;28;20059;-66
2022/08/12 01:29:42;;;;;;;3.28;2.40;;;24.70;99.90;;;;;;1043098;28;20052;-66
2022/08/12 01:30:13;;;;;;;2.95;1.92;;;24.70;99.90;;;;;;1043210;28;20426;-66
2022/08/12 01:30:47;;;;;;;2.17;1.83;;;24.70;99.90;;;;;;1043101;28;20410;-66
2022/08/12 01:31:20;;;;;;;3.58;1.88;;;24.70;99.90;;;;;;1043029;28;20682;-66
2022/08/12 01:31:53;;;;;;;4.18;2.17;;;24.70;99.90;;;;;;1042845;28;20020;-65
2022/08/12 01:32:26;;;;;;;2.88;1.75;;;24.70;99.90;;;;;;1043268;28;20017;-66
2022/08/12 01:33:01;;;;;;;3.08;1.98;;;24.70;99.90;;;;;;1043102;28;20533;-66
2022/08/12 01:33:45;;;;;;;2.80;2.40;;;24.70;99.90;;;;;;1043415;28;20021;-66
2022/08/12 01:34:22;;;;;;;2.60;2.00;;;24.70;99.90;;;;;;1042736;28;20035;-66
2022/08/12 01:35:14;;;;;;;4.15;1.92;;;24.70;99.90;;;;;;1042553;28;20017;-66
2022/08/12 01:35:53;;;;;;;3.67;1.90;;;24.60;99.90;;;;;;1043178;28;20109;-65
2022/08/12 01:36:29;;;;;;;2.63;1.70;;;24.60;99.90;;;;;;1043074;28;20017;-66
2022/08/12 01:37:01;;;;;;;3.78;2.17;;;24.60;99.90;;;;;;1043124;28;20156;-66
2022/08/12 01:37:35;;;;;;;2.42;2.22;;;24.60;99.90;;;;;;1043181;28;20028;-66
2022/08/12 01:38:10;;;;;;;2.00;1.80;;;24.60;99.90;;;;;;1043299;28;20638;-70
2022/08/12 01:38:46;;;;;;;4.45;2.40;;;24.60;99.90;;;;;;1043410;28;20436;-65
2022/08/12 01:39:17;;;;;;;3.30;1.85;;;24.60;99.90;;;;;;1042674;28;20013;-66
2022/08/12 01:39:53;;;;;;;4.50;2.00;;;24.60;99.90;;;;;;1043240;28;20501;-66
2022/08/12 01:40:31;;;;;;;2.42;2.05;;;24.60;99.90;;;;;;1042944;28;20013;-66
2022/08/12 01:41:03;;;;;;;2.38;1.88;;;24.60;99.90;;;;;;1043645;28;20017;-66
2022/08/12 01:41:41;;;;;;;2.55;2.13;;;24.60;99.90;;;;;;1043064;28;20011;-66
2022/08/12 01:42:15;;;;;;;3.90;2.28;;;24.60;99.90;;;;;;1042937;28;20025;-66
2022/08/12 01:42:49;;;;;;;4.63;2.10;;;24.60;99.90;;;;;;1043429;28;20013;-66
2022/08/12 01:43:21;;;;;;;3.85;2.25;;;24.50;99.90;;;;;;1043241;28;20020;-66
2022/08/12 01:43:53;;;;;;;3.17;2.08;;;24.50;99.90;;;;;;1043092;28;20411;-66
2022/08/12 01:44:27;;;;;;;2.78;2.10;;;24.50;99.90;;;;;;1042991;28;20543;-66
2022/08/12 01:44:58;;;;;;;2.38;1.90;;;24.50;99.90;;;;;;1043367;28;20522;-66
2022/08/12 01:45:31;;;;;;;2.92;2.20;;;24.50;99.90;;;;;;1042469;28;20013;-66
2022/08/12 01:46:21;;;;;;;3.45;2.17;;;24.50;99.90;;;;;;1043229;28;20025;-66
2022/08/12 01:47:38;;;;;;;2.88;2.00;;;24.50;99.90;;;;;;1042778;28;20025;-66
2022/08/12 01:48:33;;;;;;;2.22;2.03;;;24.50;99.90;;;;;;1043257;28;20025;-66
2022/08/12 01:49:24;;;;;;;2.78;2.22;;;24.50;99.90;;;;;;1043408;28;20021;-66
2022/08/12 01:50:14;;;;;;;2.33;1.88;;;24.50;99.90;;;;;;1043010;28;20045;-65
2022/08/12 01:50:57;;;;;;;3.28;2.53;;;24.50;99.90;;;;;;1042647;28;20017;-65
2022/08/12 01:51:42;;;;;;;2.95;2.47;;;24.50;99.90;;;;;;1042960;28;20215;-65
2022/08/12 01:52:43;;;;;;;2.55;1.80;;;24.50;99.90;;;;;;1042776;28;20025;-65
2022/08/12 01:53:16;;;;;;;2.47;2.17;;;24.50;99.90;;;;;;1043162;28;20024;-66
2022/08/12 01:54:04;;;;;;;3.67;2.40;;;24.40;99.90;;;;;;1043329;28;20623;-65
2022/08/12 01:54:41;;;;;;;2.38;2.00;;;24.40;99.90;;;;;;1043214;28;20112;-65
2022/08/12 01:55:14;;;;;;;2.97;2.30;;;24.40;99.90;;;;;;1043103;28;20021;-65
2022/08/12 01:55:46;;;;;;;3.55;2.28;;;24.40;99.90;;;;;;1043088;28;20464;-65
2022/08/12 01:56:22;;;;;;;2.50;1.95;;;24.40;99.90;;;;;;1043309;28;20017;-66
2022/08/12 01:57:15;;;;;;;2.60;2.33;;;24.40;99.90;;;;;;1043092;28;20028;-65
2022/08/12 01:57:53;;;;;;;3.33;2.33;;;24.40;99.90;;;;;;1043236;28;20066;-66
2022/08/12 01:59:45;;;;;;;3.45;2.40;;;24.50;99.90;;;;;;1042501;28;20510;-66
2022/08/12 01:59:49;;;;;;;3.25;2.47;;;24.40;99.90;;;;;;1042569;28;20033;-66
2022/08/12 02:00:20;;;;;;;3.30;2.13;;;24.40;99.90;;;;;;1042862;28;20047;-66
2022/08/12 02:01:11;;;;;;;3.83;2.37;;;24.40;99.90;;;;;;1043100;28;20025;-66
2022/08/12 02:01:45;;;;;;;3.38;2.70;;;24.40;99.90;;;;;;1043383;28;20013;-66
2022/08/12 02:02:33;;;;;;;3.25;2.42;;;24.40;99.90;;;;;;1042848;28;20588;-66
2022/08/12 02:03:25;;;;;;;4.60;2.50;;;24.40;99.90;;;;;;1043104;28;20021;-66
2022/08/12 02:11:53;;;;;;;4.13;2.30;;;24.40;99.90;;;;;;1043743;28;20048;-65
2022/08/12 02:12:41;;;;;;;4.45;2.60;;;24.40;99.90;;;;;;1044027;28;20035;-65
2022/08/12 02:13:26;;;;;;;3.88;2.53;;;24.30;99.90;;;;;;1043602;28;20120;-67
2022/08/12 02:14:05;;;;;;;2.90;2.55;;;24.30;99.90;;;;;;1043921;28;20104;-65
2022/08/12 02:14:50;;;;;;;4.25;2.42;;;24.30;99.90;;;;;;1044258;28;20025;-65
2022/08/12 02:15:51;;;;;;;3.53;2.80;;;24.30;99.90;;;;;;1044009;28;20024;-66
2022/08/12 02:16:40;;;;;;;4.45;2.80;;;24.30;99.90;;;;;;1043881;28;20021;-65
2022/08/12 02:17:22;;;;;;;3.15;2.60;;;24.30;99.90;;;;;;1043795;28;20048;-68
2022/08/12 02:17:58;;;;;;;3.88;3.08;;;24.30;99.90;;;;;;1043810;28;20060;-67
2022/08/12 02:18:47;;;;;;;2.85;2.35;;;24.30;99.90;;;;;;1043892;28;20111;-66
2022/08/12 02:19:38;;;;;;;3.50;2.60;;;24.30;99.90;;;;;;1043890;28;20036;-67
2022/08/12 02:20:20;;;;;;;3.47;2.58;;;24.20;99.90;;;;;;1043688;28;20025;-67
2022/08/12 02:21:08;;;;;;;4.85;2.58;;;24.20;99.90;;;;;;1043949;28;20044;-66
2022/08/12 02:22:08;;;;;;;2.95;2.60;;;24.20;99.90;;;;;;1044129;28;20017;-67
2022/08/12 02:22:43;;;;;;;3.00;2.22;;;24.20;99.90;;;;;;1043894;28;20483;-67
2022/08/12 02:23:15;;;;;;;4.30;2.80;;;24.20;99.90;;;;;;1043804;28;20017;-65
2022/08/12 02:23:48;;;;;;;2.95;2.38;;;24.20;99.90;;;;;;1044071;28;20029;-65
2022/08/12 02:24:20;;;;;;;3.17;2.70;;;24.20;99.90;;;;;;1043725;28;20130;-66
2022/08/12 02:24:55;;;;;;;5.15;3.17;;;24.20;99.90;;;;;;1044024;28;20029;-67
2022/08/12 02:25:32;;;;;;;2.88;2.58;;;24.20;99.90;;;;;;1043733;28;20017;-66
2022/08/12 02:26:08;;;;;;;3.42;2.47;;;24.20;99.90;;;;;;1044049;28;20029;-66
2022/08/12 02:26:41;;;;;;;2.85;2.53;;;24.20;99.90;;;;;;1043811;28;20395;-67
2022/08/12 02:27:14;;;;;;;3.50;2.63;;;24.20;99.90;;;;;;1043995;28;20765;-67
2022/08/12 02:27:47;;;;;;;5.15;2.65;;;24.20;99.90;;;;;;1043670;28;20025;-66
2022/08/12 02:28:18;;;;;;;3.53;2.75;;;24.20;99.90;;;;;;1039804;28;20109;-66
2022/08/12 02:28:51;;;;;;;2.80;2.60;;;24.20;99.90;;;;;;1039547;28;20040;-66
2022/08/12 02:29:21;;;;;;;2.85;2.50;;;24.20;99.90;;;;;;1039902;28;20148;-67
2022/08/12 02:29:52;;;;;;;2.80;2.50;;;24.20;99.90;;;;;;1039719;28;20117;-67
2022/08/12 02:30:31;;;;;;;5.13;2.90;;;24.20;99.90;;;;;;1039824;28;20017;-67
2022/08/12 02:31:04;;;;;;;5.22;2.72;;;24.20;99.90;;;;;;1039684;28;20034;-67
2022/08/12 02:31:37;;;;;;;3.38;2.85;;;24.20;99.90;;;;;;1039119;28;20607;-67
2022/08/12 02:32:08;;;;;;;3.33;2.72;;;24.20;99.90;;;;;;1039805;28;20056;-66
2022/08/12 02:32:41;;;;;;;4.70;2.38;;;24.20;99.90;;;;;;1039798;28;20024;-66
2022/08/12 02:33:12;;;;;;;3.25;2.90;;;24.20;99.90;;;;;;1039701;28;20044;-67
2022/08/12 02:33:45;;;;;;;5.30;3.25;;;24.20;99.90;;;;;;1039769;28;20017;-67
2022/08/12 02:34:16;;;;;;;3.00;2.63;;;24.20;99.90;;;;;;1039634;28;20113;-66
2022/08/12 02:34:47;;;;;;;3.23;2.80;;;24.20;99.90;;;;;;1039669;28;20035;-66
2022/08/12 02:35:21;;;;;;;4.10;3.10;;;24.20;99.90;;;;;;1039698;28;20017;-67
2022/08/12 02:35:53;;;;;;;3.30;3.00;;;24.20;99.90;;;;;;1039620;28;20105;-66
2022/08/12 02:36:24;;;;;;;3.22;2.70;;;24.20;99.90;;;;;;1039736;28;20623;-67
2022/08/12 02:36:56;;;;;;;5.65;2.72;;;24.20;99.90;;;;;;1039652;28;20021;-67
2022/08/12 02:37:30;;;;;;;3.05;2.72;;;24.20;99.90;;;;;;1039941;28;20033;-66
2022/08/12 02:38:04;;;;;;;4.50;2.63;;;24.20;99.90;;;;;;1039664;28;20457;-67
2022/08/12 02:38:35;;;;;;;3.45;3.08;;;24.20;99.90;;;;;;1039705;28;20040;-67
2022/08/12 02:39:11;;;;;;;5.25;2.80;;;24.20;99.90;;;;;;1040171;28;20022;-67
2022/08/12 02:39:48;;;;;;;5.47;3.10;;;24.20;99.90;;;;;;1039440;28;20017;-67
2022/08/12 02:40:20;;;;;;;3.92;3.03;;;24.20;99.90;;;;;;1039252;28;20056;-67
2022/08/12 02:40:54;;;;;;;4.00;2.70;;;24.20;99.90;;;;;;1039393;28;20045;-67
2022/08/12 02:41:28;;;;;;;5.35;2.72;;;24.10;99.90;;;;;;1039373;28;20021;-67
2022/08/12 02:42:03;;;;;;;4.32;2.97;;;24.10;99.90;;;;;;1039809;28;20056;-66
2022/08/12 02:42:34;;;;;;;3.25;2.75;;;24.20;99.90;;;;;;1039896;28;20017;-66
2022/08/12 02:43:18;;;;;;;5.30;2.60;;;24.10;99.90;;;;;;1039324;28;20021;-66
2022/08/12 02:43:57;;;;;;;2.95;2.45;;;24.10;99.90;;;;;;1039414;28;20064;-67
2022/08/12 02:44:34;;;;;;;3.45;2.45;;;24.10;99.90;;;;;;1039130;28;20258;-66
2022/08/12 02:45:07;;;;;;;3.58;2.88;;;24.10;99.90;;;;;;1040017;28;20013;-67
2022/08/12 02:45:45;;;;;;;3.35;2.90;;;24.10;99.90;;;;;;1039579;28;20029;-67
2022/08/12 02:46:22;;;;;;;3.38;2.95;;;24.10;99.90;;;;;;1039694;28;20025;-67
2022/08/12 02:46:58;;;;;;;4.13;3.10;;;24.10;99.90;;;;;;1039774;28;20025;-67
2022/08/12 02:47:33;;;;;;;4.15;3.10;;;24.10;99.90;;;;;;1039528;28;20018;-68
2022/08/12 02:48:09;;;;;;;6.45;2.65;;;24.10;99.90;;;;;;1039702;28;20037;-67
2022/08/12 02:48:53;;;;;;;3.40;2.70;;;24.10;99.90;;;;;;1039658;28;20025;-67
2022/08/12 02:49:45;;;;;;;3.33;2.80;;;24.10;99.90;;;;;;1039494;28;20033;-67
2022/08/12 02:50:19;;;;;;;3.65;2.80;;;24.10;99.90;;;;;;1039666;28;20618;-66
2022/08/12 02:50:55;;;;;;;3.28;2.70;;;24.00;99.90;;;;;;1039182;28;20026;-66
2022/08/12 02:51:30;;;;;;;2.83;2.50;;;24.00;99.90;;;;;;1039450;28;20727;-66
2022/08/12 02:52:02;;;;;;;3.38;2.42;;;24.00;99.90;;;;;;1039623;28;20019;-66
2022/08/12 02:52:33;;;;;;;5.22;2.90;;;24.00;99.90;;;;;;1039490;28;20465;-65
2022/08/12 02:53:04;;;;;;;3.38;3.03;;;24.00;99.90;;;;;;1039962;28;20040;-66
2022/08/12 02:53:36;;;;;;;5.10;2.70;;;24.00;99.90;;;;;;1039549;28;20070;-65
2022/08/12 02:54:07;;;;;;;4.43;3.13;;;24.00;99.90;;;;;;1039572;28;20022;-67
2022/08/12 02:54:42;;;;;;;2.72;2.45;;;24.00;99.90;;;;;;1039702;28;20104;-67
2022/08/12 02:55:22;;;;;;;3.75;2.50;;;24.00;99.90;;;;;;1039603;28;20017;-65
2022/08/12 02:55:53;;;;;;;3.85;2.70;;;24.00;99.90;;;;;;1039106;28;20500;-65
2022/08/12 02:56:26;;;;;;;4.13;2.83;;;24.00;99.90;;;;;;1039346;28;20523;-66
2022/08/12 02:56:58;;;;;;;3.65;2.53;;;24.00;99.90;;;;;;1039128;28;20819;-66
2022/08/12 02:57:31;;;;;;;3.00;2.70;;;24.00;99.90;;;;;;1039405;28;20017;-66
2022/08/12 02:58:06;;;;;;;2.92;2.58;;;24.00;99.90;;;;;;1039771;28;20751;-66
2022/08/12 02:58:37;;;;;;;2.53;2.30;;;24.00;99.90;;;;;;1039755;28;20075;-66
2022/08/12 02:59:11;;;;;;;4.50;2.88;;;24.00;99.90;;;;;;1039267;28;20014;-66
2022/08/12 02:59:42;;;;;;;3.90;2.63;;;24.00;99.90;;;;;;1039800;28;20126;-67
2022/08/12 03:00:17;;;;;;;3.00;2.50;;;24.00;99.90;;;;;;1038869;28;20021;-66
2022/08/12 03:00:48;;;;;;;4.05;2.63;;;24.00;99.90;;;;;;1039477;28;20041;-65
2022/08/12 03:01:33;;;;;;;5.47;2.83;;;24.00;99.90;;;;;;1039069;28;20082;-65
2022/08/12 03:02:08;;;;;;;2.42;2.22;;;24.00;99.90;;;;;;1039442;28;20045;-65
2022/08/12 03:02:42;;;;;;;3.70;2.83;;;24.00;99.90;;;;;;1040044;28;20023;-65
2022/08/12 03:03:14;;;;;;;3.92;2.92;;;24.00;99.90;;;;;;1039651;28;20079;-65
2022/08/12 03:03:48;;;;;;;3.90;2.40;;;24.00;99.90;;;;;;1039855;28;20021;-65
2022/08/12 03:04:26;;;;;;;2.83;2.40;;;24.00;99.90;;;;;;1039357;28;20040;-65
2022/08/12 03:04:57;;;;;;;4.82;2.70;;;24.00;99.90;;;;;;1039699;28;20033;-65
2022/08/12 03:05:31;;;;;;;4.25;2.95;;;24.00;99.90;;;;;;1043251;28;20024;-66
2022/08/12 03:06:15;;;;;;;3.15;2.85;;;23.90;99.90;;;;;;1039409;28;20052;-65
2022/08/12 03:06:54;;;;;;;3.03;2.60;;;23.90;99.90;;;;;;1039328;28;20021;-65
2022/08/12 03:07:25;;;;;;;4.45;3.10;;;23.90;99.90;;;;;;1039070;28;20206;-66
2022/08/12 03:07:59;;;;;;;3.28;2.85;;;23.90;99.90;;;;;;1039666;28;20033;-65
2022/08/12 03:08:39;;;;;;;5.25;2.53;;;23.90;99.90;;;;;;1039858;28;20029;-66
2022/08/12 03:09:13;;;;;;;2.97;2.70;;;23.90;99.90;;;;;;1043267;28;20060;-67
2022/08/12 03:10:04;;;;;;;3.28;2.88;;;23.90;99.90;;;;;;1043699;28;20021;-66
2022/08/12 03:10:41;;;;;;;3.65;2.40;;;23.90;99.90;;;;;;1043693;28;20044;-66
2022/08/12 03:11:15;;;;;;;3.55;2.63;;;23.90;99.90;;;;;;1043815;28;20642;-65
2022/08/12 03:11:53;;;;;;;3.63;2.70;;;23.90;99.90;;;;;;1043669;28;20441;-65
2022/08/12 03:12:24;;;;;;;4.38;2.67;;;23.90;99.90;;;;;;1043898;28;20511;-65
2022/08/12 03:12:56;;;;;;;4.05;3.10;;;23.90;99.90;;;;;;1043466;28;20487;-67
2022/08/12 03:13:27;;;;;;;2.88;2.58;;;23.90;99.90;;;;;;1043948;28;20083;-66
2022/08/12 03:14:00;;;;;;;2.60;2.35;;;23.90;99.90;;;;;;1043688;28;20472;-65
2022/08/12 03:14:33;;;;;;;3.15;2.53;;;23.90;99.90;;;;;;1043706;28;20056;-67
2022/08/12 03:15:08;;;;;;;4.15;2.90;;;23.90;99.90;;;;;;1043447;28;20025;-67
2022/08/12 03:15:40;;;;;;;4.13;3.08;;;23.90;99.90;;;;;;1043738;28;20179;-65
2022/08/12 03:16:11;;;;;;;3.90;3.42;;;23.90;99.90;;;;;;1043706;28;20102;-67
2022/08/12 03:16:48;;;;;;;3.67;2.80;;;23.90;99.90;;;;;;1043773;28;20025;-65
2022/08/12 03:17:37;;;;;;;3.30;2.35;;;23.80;99.90;;;;;;1043791;28;20009;-67
2022/08/12 03:18:14;;;;;;;4.40;2.90;;;23.80;99.90;;;;;;1043445;28;20084;-66
2022/08/12 03:18:47;;;;;;;2.75;2.50;;;23.80;99.90;;;;;;1043991;28;20020;-67
2022/08/12 03:19:21;;;;;;;4.53;3.13;;;23.80;99.90;;;;;;1043695;28;20377;-65
2022/08/12 03:19:52;;;;;;;2.90;2.53;;;23.80;99.90;;;;;;1043671;28;20068;-67
2022/08/12 03:20:23;;;;;;;4.40;2.75;;;23.80;99.90;;;;;;1043175;28;20639;-65
2022/08/12 03:20:54;;;;;;;3.73;2.90;;;23.80;99.90;;;;;;1043824;28;20683;-65
2022/08/12 03:21:25;;;;;;;4.97;2.95;;;23.80;99.90;;;;;;1043634;28;20044;-65
2022/08/12 03:22:11;;;;;;;3.90;3.43;;;23.80;99.90;;;;;;1043742;28;20079;-65
2022/08/12 03:22:44;;;;;;;3.35;2.97;;;23.80;99.90;;;;;;1043822;28;20021;-66
2022/08/12 03:23:15;;;;;;;3.55;2.72;;;23.80;99.90;;;;;;1043437;28;20023;-65
2022/08/12 03:23:47;;;;;;;3.70;3.20;;;23.80;99.90;;;;;;1043987;28;20017;-66
2022/08/12 03:24:24;;;;;;;3.80;2.90;;;23.80;99.90;;;;;;1043219;28;20025;-66
2022/08/12 03:24:58;;;;;;;3.17;2.83;;;23.80;99.90;;;;;;1043811;28;20055;-67
2022/08/12 03:25:33;;;;;;;3.53;2.97;;;23.80;99.90;;;;;;1043347;28;20053;-65
2022/08/12 03:26:04;;;;;;;3.70;3.17;;;23.80;99.90;;;;;;1043903;28;20519;-67
2022/08/12 03:26:35;;;;;;;4.35;3.08;;;23.80;99.90;;;;;;1043460;28;20056;-67
2022/08/12 03:27:08;;;;;;;4.10;2.92;;;23.80;99.90;;;;;;1043698;28;20017;-68
2022/08/12 03:27:48;;;;;;;4.30;2.88;;;23.80;99.90;;;;;;1043734;28;20056;-67
2022/08/12 03:28:49;;;;;;;3.05;2.65;;;23.80;99.90;;;;;;1043535;28;20021;-65
2022/08/12 03:29:11;;;;;;;3.35;2.83;;;23.80;99.90;;;;;;1043615;28;20033;-66
2022/08/12 03:29:48;;;;;;;4.15;3.30;;;23.70;99.90;;;;;;1043547;28;20016;-67
2022/08/12 03:30:21;;;;;;;3.58;3.10;;;23.70;99.90;;;;;;1043836;28;20040;-65
2022/08/12 03:30:53;;;;;;;3.17;2.88;;;23.70;99.90;;;;;;1042966;28;20036;-67
2022/08/12 03:31:28;;;;;;;4.45;3.33;;;23.70;99.90;;;;;;1042833;28;20017;-65
2022/08/12 03:31:59;;;;;;;3.47;2.75;;;23.70;99.90;;;;;;1043235;28;20055;-65
2022/08/12 03:32:37;;;;;;;3.25;2.75;;;23.70;99.90;;;;;;1043313;28;20047;-65
2022/08/12 03:33:10;;;;;;;3.40;3.10;;;23.70;99.90;;;;;;1043705;28;20021;-65
2022/08/12 03:33:44;;;;;;;4.18;2.60;;;23.70;99.90;;;;;;1043583;28;20078;-65
2022/08/12 03:34:22;;;;;;;4.45;2.85;;;23.70;99.90;;;;;;1043598;28;20457;-65
2022/08/12 03:34:57;;;;;;;3.95;2.95;;;23.70;99.90;;;;;;1043504;28;20025;-65
2022/08/12 03:35:31;;;;;;;3.47;3.17;;;23.70;99.90;;;;;;1043739;28;20372;-65
2022/08/12 03:36:04;;;;;;;3.00;2.70;;;23.70;99.90;;;;;;1043446;28;20029;-65
2022/08/12 03:36:36;;;;;;;4.32;2.55;;;23.70;99.90;;;;;;1043536;28;20035;-65
2022/08/12 03:37:09;;;;;;;3.53;2.90;;;23.70;99.90;;;;;;1043369;28;20013;-65
2022/08/12 03:37:41;;;;;;;4.00;3.08;;;23.70;99.90;;;;;;1043947;28;20126;-66
2022/08/12 03:38:14;;;;;;;3.97;3.20;;;23.70;99.90;;;;;;1043413;28;20082;-65
2022/08/12 03:39:44;;;;;;;4.05;3.00;;;23.70;99.90;;;;;;1042755;28;20060;-66
2022/08/12 03:41:33;;;;;;;3.17;2.75;;;23.70;99.90;;;;;;1042896;28;20013;-66
2022/08/12 03:41:34;;;;;;;4.05;3.33;;;23.70;99.90;;;;;;1039050;28;20076;-66
2022/08/12 03:42:15;;;;;;;3.65;3.33;;;23.70;99.90;;;;;;1039263;28;20036;-65
2022/08/12 04:00:23;;;;;;;3.55;3.10;;;23.50;99.90;;;;;;1039366;28;20032;-66
2022/08/12 04:00:54;;;;;;;4.15;3.50;;;23.50;99.90;;;;;;1039414;28;20028;-65
2022/08/12 04:01:25;;;;;;;3.83;3.43;;;23.50;99.90;;;;;;1039312;28;20091;-64
2022/08/12 04:01:56;;;;;;;3.95;3.05;;;23.50;99.90;;;;;;1039374;28;20485;-65
2022/08/12 04:02:28;;;;;;;5.10;3.50;;;23.50;99.90;;;;;;1039380;28;20465;-65
2022/08/12 04:03:00;;;;;;;3.20;2.80;;;23.50;99.90;;;;;;1039444;28;20542;-65
2022/08/12 04:04:28;;;;;;;4.78;3.47;;;23.50;99.90;;;;;;1039336;28;20036;-66
2022/08/12 04:05:00;;;;;;;4.65;2.97;;;23.50;99.90;;;;;;1039612;28;20056;-65
2022/08/12 04:05:32;;;;;;;3.95;3.42;;;23.50;99.90;;;;;;1038955;28;20018;-67
2022/08/12 04:06:02;;;;;;;3.72;2.80;;;23.50;99.90;;;;;;1039724;28;20022;-65
2022/08/12 04:06:39;;;;;;;3.60;3.30;;;23.50;99.90;;;;;;1039191;28;20022;-65
2022/08/12 04:07:11;;;;;;;4.35;3.40;;;23.50;99.90;;;;;;1039397;28;20025;-65
2022/08/12 04:07:42;;;;;;;4.15;3.38;;;23.50;99.90;;;;;;1039409;28;20108;-66
2022/08/12 04:08:13;;;;;;;4.00;3.30;;;23.50;99.90;;;;;;1039351;28;20022;-65
2022/08/12 04:08:46;;;;;;;3.50;3.20;;;23.50;99.90;;;;;;1041601;28;20385;-66
2022/08/12 04:09:20;;;;;;;3.40;3.10;;;23.50;99.90;;;;;;1043554;28;20060;-65
2022/08/12 04:09:50;;;;;;;3.83;3.38;;;23.50;99.90;;;;;;1043578;28;20017;-66
2022/08/12 04:10:21;;;;;;;3.37;3.07;;;23.40;99.90;;;;;;1043438;28;20029;-65
2022/08/12 04:13:24;;;;;;;3.40;3.10;;;23.40;99.90;;;;;;1043564;28;20562;-65
2022/08/12 04:14:05;;;;;;;4.55;3.40;;;23.40;99.90;;;;;;1043210;28;20083;-65
2022/08/12 04:14:36;;;;;;;3.35;3.05;;;23.40;99.90;;;;;;1043246;28;20021;-66
2022/08/12 04:15:11;;;;;;;3.70;2.80;;;23.40;99.90;;;;;;1043697;28;20021;-65
2022/08/12 04:15:44;;;;;;;3.50;2.72;;;23.40;99.90;;;;;;1043327;28;20033;-66
2022/08/12 04:16:16;;;;;;;5.90;3.17;;;23.40;99.90;;;;;;1043510;28;20032;-67
2022/08/12 04:16:49;;;;;;;3.50;3.20;;;23.40;99.90;;;;;;1043218;28;20025;-66
2022/08/12 04:17:21;;;;;;;3.10;2.80;;;23.40;99.90;;;;;;1043607;28;20020;-66
2022/08/12 04:17:52;;;;;;;3.63;3.20;;;23.40;99.90;;;;;;1043369;28;20329;-65
2022/08/12 04:18:23;;;;;;;5.80;3.97;;;23.40;99.90;;;;;;1043568;28;20719;-66
2022/08/12 04:18:54;;;;;;;3.60;3.20;;;23.40;99.90;;;;;;1043179;28;20271;-66
2022/08/12 04:19:25;;;;;;;6.23;3.87;;;23.40;99.90;;;;;;1043443;28;20036;-66
2022/08/12 04:19:57;;;;;;;4.73;3.10;;;23.40;99.90;;;;;;1043301;28;20052;-66
2022/08/12 04:20:27;;;;;;;3.05;2.75;;;23.40;99.90;;;;;;1043310;28;20076;-66
2022/08/12 04:20:58;;;;;;;3.63;3.20;;;23.40;99.90;;;;;;1042894;28;20021;-66
2022/08/12 04:21:31;;;;;;;3.43;3.10;;;23.40;99.90;;;;;;1043239;28;20524;-66
2022/08/12 04:22:02;;;;;;;3.90;3.28;;;23.40;99.90;;;;;;1043050;28;20045;-66
2022/08/12 04:22:33;;;;;;;4.90;3.00;;;23.40;99.90;;;;;;1043417;28;20502;-66
2022/08/12 04:23:04;;;;;;;4.83;3.47;;;23.40;99.90;;;;;;1043610;28;20025;-66
2022/08/12 04:23:41;;;;;;;3.63;3.03;;;23.40;99.90;;;;;;1043392;28;20025;-66
2022/08/12 04:24:12;;;;;;;4.45;2.75;;;23.40;99.90;;;;;;1041845;28;20488;-66
2022/08/12 04:24:43;;;;;;;3.37;3.07;;;23.40;99.90;;;;;;1039461;28;20543;-66
2022/08/12 04:25:14;;;;;;;3.83;3.10;;;23.40;99.90;;;;;;1039278;28;20337;-67
2022/08/12 04:25:44;;;;;;;4.13;2.93;;;23.40;99.90;;;;;;1039548;28;20504;-66
2022/08/12 04:26:15;;;;;;;5.47;3.30;;;23.40;99.90;;;;;;1039225;28;20834;-67
2022/08/12 04:26:45;;;;;;;4.63;3.43;;;23.40;99.90;;;;;;1039462;28;20105;-66
2022/08/12 04:27:16;;;;;;;3.90;3.13;;;23.40;99.90;;;;;;1039215;28;20488;-66
2022/08/12 04:27:49;;;;;;;4.10;3.00;;;23.40;99.90;;;;;;1039495;28;20025;-65
2022/08/12 04:28:27;;;;;;;3.70;3.30;;;23.40;99.90;;;;;;1039182;28;20047;-66
2022/08/12 04:28:58;;;;;;;4.13;3.33;;;23.40;99.90;;;;;;1039434;28;20032;-65
2022/08/12 04:29:28;;;;;;;3.38;3.05;;;23.40;99.90;;;;;;1039082;28;20039;-72